createdAt,value
2023-05-08T00:02:03.400Z,3.45
2023-05-08T00:05:04.784Z,4.00
2023-05-08T00:08:06.169Z,4.60
2023-05-08T00:11:07.476Z,4.20
2023-05-08T00:14:08.784Z,4.18
2023-05-08T00:17:10.073Z,3.63
2023-05-08T00:20:11.537Z,3.90
2023-05-08T00:23:12.986Z,4.30
2023-05-08T00:26:14.289Z,4.22
2023-05-08T00:29:15.602Z,4.55
2023-05-08T00:32:17.036Z,4.72
2023-05-08T00:35:18.409Z,4.77
2023-05-08T00:38:19.749Z,4.18
2023-05-08T00:41:21.047Z,3.90
2023-05-08T00:44:22.362Z,4.40
2023-05-08T00:47:23.686Z,4.22
2023-05-08T00:50:25.017Z,4.67
2023-05-08T00:53:26.339Z,4.63
2023-05-08T00:56:27.636Z,4.28
2023-05-08T00:59:28.947Z,4.78
2023-05-08T01:02:30.309Z,6.60
2023-05-08T01:05:31.667Z,4.87
2023-05-08T01:08:32.969Z,6.22
2023-05-08T01:11:34.282Z,5.30
2023-05-08T01:14:35.591Z,4.75
2023-05-08T01:17:36.973Z,5.32
2023-05-08T01:20:38.304Z,4.90
2023-05-08T01:23:39.615Z,4.28
2023-05-08T01:26:40.960Z,5.43
2023-05-08T01:29:42.271Z,4.40
2023-05-08T01:32:43.633Z,4.85
2023-05-08T01:35:45.024Z,5.30
2023-05-08T01:38:46.304Z,5.22
2023-05-08T01:41:47.616Z,4.88
2023-05-08T01:44:48.916Z,5.93
2023-05-08T01:47:50.258Z,4.78
2023-05-08T01:50:51.564Z,5.77
2023-05-08T01:53:52.859Z,4.90
2023-05-08T01:56:54.164Z,5.47
2023-05-08T01:59:55.468Z,5.10
2023-05-08T02:02:56.885Z,5.07
2023-05-08T02:05:58.234Z,5.57
2023-05-08T02:08:59.545Z,5.72
2023-05-08T02:12:00.885Z,6.20
2023-05-08T02:15:02.199Z,5.32
2023-05-08T02:18:03.579Z,6.20
2023-05-08T02:21:04.916Z,5.43
2023-05-08T02:24:06.219Z,5.20
2023-05-08T02:27:07.540Z,6.00
2023-05-08T02:30:08.855Z,6.05
2023-05-08T02:33:10.201Z,6.45
2023-05-08T02:36:11.515Z,5.17
2023-05-08T02:39:12.831Z,5.70
2023-05-08T02:42:14.143Z,6.45
2023-05-08T02:45:15.442Z,5.88
2023-05-08T02:48:16.763Z,6.43
2023-05-08T02:51:18.054Z,6.13
2023-05-08T02:54:19.385Z,5.90
2023-05-08T02:57:20.673Z,6.10
2023-05-08T03:00:21.971Z,6.18
2023-05-08T03:03:23.361Z,6.47
2023-05-08T03:06:24.746Z,6.07
2023-05-08T03:09:26.044Z,5.85
2023-05-08T03:12:27.359Z,14.38
2023-05-08T03:15:28.683Z,6.47
2023-05-08T03:18:29.987Z,5.80
2023-05-08T03:21:31.280Z,5.67
2023-05-08T03:24:32.584Z,5.75
2023-05-08T03:27:33.891Z,5.50
2023-05-08T03:30:35.195Z,6.60
2023-05-08T03:33:36.508Z,6.93
2023-05-08T03:36:37.809Z,6.07
2023-05-08T03:39:39.095Z,5.60
2023-05-08T03:42:40.406Z,5.95
2023-05-08T03:45:41.719Z,5.82
2023-05-08T03:48:42.985Z,5.82
2023-05-08T03:51:45.466Z,5.90
2023-05-08T03:54:46.755Z,5.93
2023-05-08T03:57:48.058Z,6.38
2023-05-08T04:00:49.502Z,6.15
2023-05-08T04:03:50.917Z,6.15
2023-05-08T04:06:52.267Z,6.80
2023-05-08T04:09:53.568Z,6.30
2023-05-08T04:12:54.942Z,7.50
2023-05-08T04:15:56.258Z,6.43
2023-05-08T04:18:57.573Z,8.32
2023-05-08T04:21:59.122Z,6.50
2023-05-08T04:25:00.442Z,6.72
2023-05-08T04:28:01.743Z,7.57
2023-05-08T04:31:03.027Z,12.57
2023-05-08T04:34:04.348Z,27.10
2023-05-08T04:37:05.701Z,17.10
2023-05-08T04:40:07.007Z,14.60
2023-05-08T04:43:08.320Z,15.75
2023-05-08T04:46:09.688Z,15.55
2023-05-08T04:49:11.027Z,16.27
2023-05-08T04:52:12.344Z,22.20
2023-05-08T04:55:13.886Z,17.85
2023-05-08T04:58:15.408Z,13.68
2023-05-08T05:01:16.717Z,17.17
2023-05-08T05:04:18.079Z,12.70
2023-05-08T05:07:19.389Z,18.30
2023-05-08T05:10:20.680Z,12.23
2023-05-08T05:13:22.127Z,15.23
2023-05-08T05:16:23.547Z,16.42
2023-05-08T05:19:24.881Z,13.52
2023-05-08T05:22:26.203Z,48.57
2023-05-08T05:25:27.510Z,41.33
2023-05-08T05:28:29.111Z,19.45
2023-05-08T05:31:30.494Z,21.42
2023-05-08T05:34:31.825Z,17.70
2023-05-08T05:37:33.132Z,9.57
2023-05-08T05:40:34.518Z,8.40
2023-05-08T05:43:35.849Z,9.27
2023-05-08T05:46:37.224Z,12.98
2023-05-08T05:49:38.520Z,12.98
2023-05-08T05:52:39.921Z,13.67
2023-05-08T05:55:41.229Z,34.58
2023-05-08T05:58:42.529Z,36.90
2023-05-08T06:01:43.877Z,42.78
2023-05-08T06:04:45.216Z,28.17
2023-05-08T06:07:46.556Z,48.23
2023-05-08T06:10:47.889Z,36.42
2023-05-08T06:13:50.480Z,33.35
2023-05-08T06:16:52.081Z,48.65
2023-05-08T06:19:53.427Z,42.35
2023-05-08T06:22:54.753Z,37.80
2023-05-08T06:25:56.095Z,26.70
2023-05-08T06:28:57.404Z,33.75
2023-05-08T06:31:58.761Z,33.00
2023-05-08T06:35:00.109Z,30.35
2023-05-08T06:38:01.492Z,36.67
2023-05-08T06:41:02.795Z,25.85
2023-05-08T06:44:04.096Z,14.60
2023-05-08T06:47:05.400Z,14.48
2023-05-08T06:50:06.702Z,20.52
2023-05-08T06:53:08.035Z,14.30
2023-05-08T06:56:09.370Z,14.63
2023-05-08T06:59:10.690Z,17.63
2023-05-08T07:02:11.993Z,16.08
2023-05-08T07:05:13.576Z,12.68
2023-05-08T07:08:15.158Z,10.63
2023-05-08T07:11:16.496Z,11.02
2023-05-08T07:14:17.845Z,8.88
2023-05-08T07:17:19.167Z,13.10
2023-05-08T07:20:20.494Z,11.68
2023-05-08T07:23:21.838Z,13.87
2023-05-08T07:26:23.172Z,10.43
2023-05-08T07:29:24.516Z,11.95
2023-05-08T07:32:25.871Z,14.60
2023-05-08T07:35:27.165Z,13.77
2023-05-08T07:38:28.470Z,14.27
2023-05-08T07:41:29.834Z,11.70
2023-05-08T07:44:37.255Z,8.93
2023-05-08T07:47:44.915Z,8.88
2023-05-08T07:50:46.249Z,10.00
2023-05-08T07:53:47.588Z,68.47
2023-05-08T07:56:48.884Z,74.25
2023-05-08T07:59:50.207Z,69.70
2023-05-08T08:02:51.720Z,56.15
2023-05-08T08:05:53.148Z,49.22
2023-05-08T08:08:54.440Z,52.83
2023-05-08T08:11:55.762Z,47.00
2023-05-08T08:14:57.086Z,30.90
2023-05-08T08:17:58.414Z,33.83
2023-05-08T08:20:59.759Z,31.88
2023-05-08T08:24:01.123Z,21.73
2023-05-08T08:27:02.459Z,16.83
2023-05-08T08:30:15.876Z,16.92
2023-05-08T08:33:19.171Z,21.38
2023-05-08T08:36:20.655Z,20.77
2023-05-08T08:39:21.952Z,22.00
2023-05-08T08:42:23.446Z,22.98
2023-05-08T08:45:24.760Z,20.92
2023-05-08T08:48:26.067Z,21.15
2023-05-08T08:51:27.393Z,20.77
2023-05-08T08:54:28.712Z,23.77
2023-05-08T08:57:30.024Z,74.80
2023-05-08T09:00:31.332Z,66.60
2023-05-08T09:03:32.816Z,71.15
2023-05-08T09:06:34.239Z,59.95
2023-05-08T09:09:35.544Z,25.90
2023-05-08T09:12:36.882Z,28.38
2023-05-08T09:15:38.211Z,25.80
2023-05-08T09:18:39.538Z,23.17
2023-05-08T09:21:40.943Z,21.67
2023-05-08T09:24:42.269Z,25.20
2023-05-08T09:27:43.572Z,20.52
2023-05-08T09:30:44.895Z,14.57
2023-05-08T09:33:46.198Z,14.82
2023-05-08T09:36:47.487Z,13.35
2023-05-08T09:39:48.785Z,14.17
2023-05-08T09:42:50.095Z,31.98
2023-05-08T09:45:51.496Z,56.63
2023-05-08T09:48:52.849Z,52.85
2023-05-08T09:51:54.186Z,30.48
2023-05-08T09:54:55.492Z,25.10
2023-05-08T09:57:56.796Z,23.80
2023-05-08T10:00:58.140Z,18.92
2023-05-08T10:03:59.524Z,13.25
2023-05-08T10:07:00.865Z,12.68
2023-05-08T10:10:02.212Z,18.30
2023-05-08T10:13:04.036Z,10.05
2023-05-08T10:16:05.338Z,10.82
2023-05-08T10:19:06.852Z,12.52
2023-05-08T10:22:08.145Z,9.50
2023-05-08T10:25:09.486Z,9.80
2023-05-08T10:28:10.829Z,10.18
2023-05-08T10:31:12.217Z,12.93
2023-05-08T10:34:13.542Z,46.70
2023-05-08T10:37:14.855Z,17.42
2023-05-08T10:40:16.397Z,12.60
2023-05-08T10:43:17.834Z,15.13
2023-05-08T10:46:19.158Z,15.27
2023-05-08T10:49:20.495Z,16.50
2023-05-08T10:52:21.820Z,11.15
2023-05-08T10:55:23.120Z,9.77
2023-05-08T10:58:24.430Z,10.65
2023-05-08T11:01:25.813Z,13.68
2023-05-08T11:04:27.213Z,13.25
2023-05-08T11:07:28.586Z,11.20
2023-05-08T11:10:29.952Z,9.60
2023-05-08T11:13:31.274Z,10.52
2023-05-08T11:16:32.696Z,12.13
2023-05-08T11:19:34.108Z,8.95
2023-05-08T11:22:35.427Z,9.23
2023-05-08T11:25:36.743Z,11.03
2023-05-08T11:28:38.055Z,12.00
2023-05-08T11:31:39.504Z,12.30
2023-05-08T11:34:40.821Z,13.20
2023-05-08T11:37:42.133Z,12.07
2023-05-08T11:40:43.448Z,12.90
2023-05-08T11:43:44.735Z,8.20
2023-05-08T11:46:46.119Z,8.45
2023-05-08T11:49:47.462Z,10.95
2023-05-08T11:52:48.797Z,10.63
2023-05-08T11:55:50.117Z,8.53
2023-05-08T11:58:51.447Z,9.40
2023-05-08T12:04:57.034Z,6.85
2023-05-08T12:07:58.435Z,9.38
2023-05-08T12:10:59.737Z,23.43
2023-05-08T12:14:01.078Z,17.35
2023-05-08T12:17:02.474Z,11.68
2023-05-08T12:20:03.849Z,22.63
2023-05-08T12:23:05.172Z,14.20
2023-05-08T12:26:06.566Z,10.00
2023-05-08T12:29:07.862Z,19.02
2023-05-08T12:32:09.197Z,19.15
2023-05-08T12:35:10.517Z,15.93
2023-05-08T12:38:11.841Z,8.30
2023-05-08T12:41:13.172Z,6.60
2023-05-08T12:44:14.482Z,17.33
2023-05-08T12:47:15.811Z,7.60
2023-05-08T12:50:17.137Z,8.40
2023-05-08T12:53:18.452Z,8.27
2023-05-08T12:56:19.747Z,22.10
2023-05-08T12:59:21.039Z,22.75
2023-05-08T13:02:22.508Z,16.48
2023-05-08T13:05:23.907Z,16.48
2023-05-08T13:08:25.218Z,21.50
2023-05-08T13:11:26.527Z,46.43
2023-05-08T13:14:27.845Z,35.75
2023-05-08T13:17:29.305Z,19.20
2023-05-08T13:20:30.652Z,39.50
2023-05-08T13:23:31.980Z,23.38
2023-05-08T13:26:33.292Z,29.80
2023-05-08T13:29:34.618Z,25.98
2023-05-08T13:32:35.934Z,25.10
2023-05-08T13:35:37.230Z,21.30
2023-05-08T13:38:38.533Z,20.00
2023-05-08T13:41:39.898Z,16.33
2023-05-08T13:44:41.200Z,21.13
2023-05-08T13:47:42.542Z,27.23
2023-05-08T13:50:43.872Z,21.73
2023-05-08T13:53:45.208Z,15.48
2023-05-08T13:56:46.528Z,17.90
2023-05-08T13:59:47.819Z,16.38
2023-05-08T14:02:51.532Z,16.50
2023-05-08T14:05:54.376Z,18.30
2023-05-08T14:08:57.098Z,14.75
2023-05-08T14:11:58.665Z,15.17
2023-05-08T14:14:59.959Z,14.38
2023-05-08T14:18:01.276Z,16.83
2023-05-08T14:21:02.598Z,9.43
2023-05-08T14:24:03.899Z,10.05
2023-05-08T14:27:05.202Z,21.90
2023-05-08T14:30:06.626Z,14.43
2023-05-08T14:33:08.117Z,8.63
2023-05-08T14:36:09.411Z,8.93
2023-05-08T14:39:10.716Z,9.88
2023-05-08T14:45:18.315Z,8.80
2023-05-08T14:48:19.697Z,10.55
2023-05-08T14:51:20.984Z,8.07
2023-05-08T14:54:22.446Z,7.13
2023-05-08T14:57:23.841Z,10.40
2023-05-08T15:00:25.157Z,6.47
2023-05-08T15:03:26.577Z,6.03
2023-05-08T15:06:27.946Z,8.43
2023-05-08T15:09:29.257Z,7.30
2023-05-08T15:12:30.552Z,8.53
2023-05-08T15:15:31.853Z,7.95
2023-05-08T15:18:33.132Z,6.30
2023-05-08T15:21:34.467Z,6.88
2023-05-08T15:24:35.752Z,11.38
2023-05-08T15:27:37.062Z,8.03
2023-05-08T15:30:38.343Z,6.40
2023-05-08T15:33:39.636Z,7.20
2023-05-08T15:36:40.922Z,7.90
2023-05-08T15:39:42.218Z,5.65
2023-05-08T15:42:43.518Z,7.43
2023-05-08T15:45:44.914Z,7.68
2023-05-08T15:48:46.251Z,7.25
2023-05-08T15:51:47.564Z,8.05
2023-05-08T15:54:48.868Z,6.93
2023-05-08T15:57:50.146Z,8.97
2023-05-08T16:00:51.497Z,6.90
2023-05-08T16:03:52.788Z,7.68
2023-05-08T16:06:54.091Z,5.13
2023-05-08T16:09:55.435Z,6.85
2023-05-08T16:12:56.810Z,6.03
2023-05-08T16:15:58.153Z,5.25
2023-05-08T16:18:59.524Z,6.10
2023-05-08T16:22:00.884Z,5.28
2023-05-08T16:25:02.158Z,7.32
2023-05-08T16:28:03.466Z,6.67
2023-05-08T16:31:04.812Z,5.80
2023-05-08T16:34:06.133Z,4.75
2023-05-08T16:37:07.443Z,6.40
2023-05-08T16:40:08.761Z,5.53
2023-05-08T16:43:10.072Z,4.83
2023-05-08T16:46:11.410Z,16.00
2023-05-08T16:49:12.707Z,10.32
2023-05-08T16:52:13.989Z,9.02
2023-05-08T16:55:15.447Z,6.88
2023-05-08T16:58:16.841Z,18.57
2023-05-08T17:01:18.167Z,13.20
2023-05-08T17:04:19.761Z,13.98
2023-05-08T17:07:21.080Z,13.00
2023-05-08T17:10:22.384Z,12.02
2023-05-08T17:13:23.758Z,10.17
2023-05-08T17:16:25.121Z,16.48
2023-05-08T17:19:26.475Z,6.22
2023-05-08T17:22:27.752Z,9.05
2023-05-08T17:25:29.057Z,7.72
2023-05-08T17:28:30.352Z,9.77
2023-05-08T17:31:31.677Z,6.15
2023-05-08T17:34:33.008Z,6.43
2023-05-08T17:37:34.353Z,6.35
2023-05-08T17:40:35.664Z,6.60
2023-05-08T17:43:36.951Z,7.47
2023-05-08T17:46:38.257Z,7.13
2023-05-08T17:49:39.553Z,7.15
2023-05-08T17:52:40.894Z,6.55
2023-05-08T17:55:42.226Z,5.50
2023-05-08T17:58:43.559Z,6.60
2023-05-08T18:01:44.936Z,7.00
2023-05-08T18:04:46.267Z,6.30
2023-05-08T18:07:47.580Z,7.85
2023-05-08T18:10:48.877Z,6.93
2023-05-08T18:13:50.193Z,7.30
2023-05-08T18:16:51.539Z,7.43
2023-05-08T18:19:52.832Z,8.05
2023-05-08T18:22:54.160Z,8.55
2023-05-08T18:25:55.445Z,7.97
2023-05-08T18:28:56.754Z,5.93
2023-05-08T18:31:58.078Z,6.25
2023-05-08T18:34:59.400Z,7.30
2023-05-08T18:38:00.928Z,5.40
2023-05-08T18:41:02.258Z,6.35
2023-05-08T18:44:03.576Z,6.77
2023-05-08T18:47:04.897Z,8.32
2023-05-08T18:50:06.236Z,5.65
2023-05-08T18:53:07.531Z,6.18
2023-05-08T18:56:09.192Z,6.65
2023-05-08T18:59:10.928Z,6.37
2023-05-08T19:02:12.324Z,5.85
2023-05-08T19:05:13.922Z,9.48
2023-05-08T19:08:15.310Z,5.57
2023-05-08T19:11:16.621Z,6.28
2023-05-08T19:14:17.951Z,5.20
2023-05-08T19:17:19.555Z,5.95
2023-05-08T19:20:20.905Z,4.90
2023-05-08T19:23:22.205Z,7.20
2023-05-08T19:26:23.515Z,5.43
2023-05-08T19:29:24.799Z,5.50
2023-05-08T19:32:26.148Z,6.85
2023-05-08T19:35:27.467Z,5.18
2023-05-08T19:38:28.773Z,5.30
2023-05-08T19:41:30.078Z,6.20
2023-05-08T19:44:31.380Z,6.27
2023-05-08T19:47:32.713Z,5.40
2023-05-08T19:50:34.076Z,5.97
2023-05-08T19:53:35.374Z,5.22
2023-05-08T19:56:36.678Z,5.43
2023-05-08T19:59:37.972Z,5.70
2023-05-08T20:02:39.354Z,5.25
2023-05-08T20:05:40.765Z,6.20
2023-05-08T20:08:42.066Z,5.90
2023-05-08T20:11:43.373Z,4.82
2023-05-08T20:14:44.683Z,5.17
2023-05-08T20:17:46.058Z,5.70
2023-05-08T20:20:47.418Z,5.43
2023-05-08T20:23:48.721Z,7.05
2023-05-08T20:26:50.005Z,6.63
2023-05-08T20:29:51.312Z,5.43
2023-05-08T20:32:52.767Z,6.10
2023-05-08T20:35:54.144Z,5.65
2023-05-08T20:38:55.462Z,5.45
2023-05-08T20:41:56.770Z,7.03
2023-05-08T20:44:58.123Z,5.40
2023-05-08T20:47:59.472Z,5.68
2023-05-08T20:51:00.822Z,5.50
2023-05-08T20:54:02.106Z,7.93
2023-05-08T20:57:03.442Z,7.85
2023-05-08T21:00:04.718Z,5.30
2023-05-08T21:03:06.053Z,6.32
2023-05-08T21:06:07.420Z,5.43
2023-05-08T21:09:08.851Z,5.68
2023-05-08T21:12:10.166Z,5.25
2023-05-08T21:15:11.679Z,5.53
2023-05-08T21:18:13.066Z,5.65
2023-05-08T21:21:14.364Z,6.65
2023-05-08T21:24:15.666Z,5.10
2023-05-08T21:27:16.945Z,5.00
2023-05-08T21:30:18.318Z,4.47
2023-05-08T21:33:19.628Z,4.72
2023-05-08T21:36:20.933Z,5.35
2023-05-08T21:39:22.223Z,5.65
2023-05-08T21:42:23.521Z,4.45
2023-05-08T21:45:24.813Z,4.03
2023-05-08T21:48:26.125Z,4.90
2023-05-08T21:51:27.422Z,4.75
2023-05-08T21:54:28.717Z,5.38
2023-05-08T21:57:30.012Z,4.80
2023-05-08T22:00:31.290Z,5.47
2023-05-08T22:03:32.735Z,5.22
2023-05-08T22:06:34.093Z,4.60
2023-05-08T22:09:35.406Z,3.63
2023-05-08T22:12:36.732Z,4.10
2023-05-08T22:15:38.039Z,4.73
2023-05-08T22:18:39.345Z,4.53
2023-05-08T22:21:40.659Z,4.57
2023-05-08T22:24:41.957Z,3.88
2023-05-08T22:27:43.261Z,4.25
2023-05-08T22:30:44.546Z,4.63
2023-05-08T22:33:46.198Z,4.88
2023-05-08T22:36:47.485Z,4.50
2023-05-08T22:39:48.798Z,4.32
2023-05-08T22:42:50.085Z,4.30
2023-05-08T22:45:51.467Z,3.77
2023-05-08T22:48:52.772Z,3.53
2023-05-08T22:51:54.076Z,4.15
2023-05-08T22:54:55.391Z,4.53
2023-05-08T22:57:56.698Z,3.72
2023-05-08T23:00:58.027Z,4.60
2023-05-08T23:03:59.401Z,4.22
2023-05-08T23:07:00.732Z,4.35
2023-05-08T23:10:02.023Z,3.85
2023-05-08T23:13:03.346Z,3.83
2023-05-08T23:16:04.677Z,3.67
2023-05-08T23:19:05.965Z,3.50
2023-05-08T23:22:07.262Z,3.78
2023-05-08T23:25:08.563Z,4.75
2023-05-08T23:28:09.889Z,4.65
2023-05-08T23:31:11.208Z,4.17
2023-05-08T23:34:12.507Z,4.15
2023-05-08T23:37:13.807Z,3.90
2023-05-08T23:40:15.102Z,3.95
2023-05-08T23:43:16.384Z,3.67
2023-05-08T23:46:17.770Z,4.70
2023-05-08T23:49:19.092Z,3.97
2023-05-08T23:52:20.409Z,3.70
2023-05-08T23:55:21.703Z,3.85
2023-05-08T23:58:23.031Z,3.70
